Time;durP1;ratioP1;P1;durP2;ratioP2;P2;SDS_P1;SDS_P2;PMS_P1;PMS_P2;Temp;Humidity;BMP_temperature;BMP_pressure;BME280_temperature;BME280_humidity;BME280_pressure;Samples;Min_cycle;Max_cycle;Signal;HPM_P1;HPM_P2
2023/08/13 00:00:51;;;;;;;6.60;3.70;;;;;;;19.20;52.87;100765.11;105605;1254;64259;-54
2023/08/13 00:03:18;;;;;;;7.30;3.20;;;;;;;19.19;52.88;100766.22;105435;1254;60484;-53
2023/08/13 00:05:46;;;;;;;8.40;3.60;;;;;;;19.19;52.90;100764.82;105427;1254;59350;-54
2023/08/13 00:08:14;;;;;;;7.20;3.40;;;;;;;19.18;52.81;100766.96;105622;1256;64890;-54
2023/08/13 00:10:41;;;;;;;5.70;3.10;;;;;;;19.14;52.86;100766.06;105467;1254;61297;-54
2023/08/13 00:13:10;;;;;;;6.10;3.40;;;;;;;19.10;52.91;100766.88;105570;1256;63736;-59
2023/08/13 00:15:38;;;;;;;6.80;3.10;;;;;;;19.06;52.90;100765.35;105758;1254;60612;-60
2023/08/13 00:18:05;;;;;;;6.50;3.40;;;;;;;19.02;53.00;100768.98;105570;1257;60409;-57
2023/08/13 00:20:33;;;;;;;8.10;4.00;;;;;;;18.97;53.10;100768.85;105658;1257;64899;-58
2023/08/13 00:23:02;;;;;;;6.60;3.50;;;;;;;18.93;53.19;100769.76;105506;1254;61306;-59
2023/08/13 00:25:29;;;;;;;8.30;4.00;;;;;;;18.91;53.39;100769.66;105570;1251;63669;-60
2023/08/13 00:27:57;;;;;;;9.50;3.70;;;;;;;18.87;53.52;100769.23;105596;1254;60481;-57
2023/08/13 00:30:24;;;;;;;8.60;3.30;;;;;;;18.83;53.48;100769.98;105506;1256;61204;-59
2023/08/13 00:32:53;;;;;;;7.30;3.70;;;;;;;18.83;53.45;100767.17;105361;1251;65110;-61
2023/08/13 00:35:21;;;;;;;6.70;3.50;;;;;;;18.82;53.71;100770.61;105505;1258;61879;-61
2023/08/13 00:37:48;;;;;;;6.80;3.40;;;;;;;18.79;53.91;100774.64;105531;1257;63825;-61
2023/08/13 00:40:16;;;;;;;11.30;4.00;;;;;;;18.78;54.00;100771.94;105263;1260;60530;-59
2023/08/13 00:42:43;;;;;;;6.90;3.40;;;;;;;18.81;54.08;100773.61;105314;1255;60514;-59
2023/08/13 00:45:11;;;;;;;7.50;3.50;;;;;;;18.78;53.99;100775.46;105216;1258;64848;-62
2023/08/13 00:47:38;;;;;;;6.10;3.30;;;;;;;18.74;54.21;100776.04;105347;1254;61289;-61
2023/08/13 00:50:07;;;;;;;5.90;3.40;;;;;;;18.71;54.21;100773.70;105296;1257;62916;-60
2023/08/13 00:52:34;;;;;;;9.00;4.20;;;;;;;18.68;54.40;100772.61;105432;1257;60558;-60
2023/08/13 00:55:02;;;;;;;8.10;3.40;;;;;;;18.72;54.51;100773.66;105579;1251;60475;-62
2023/08/13 00:57:31;;;;;;;7.80;3.60;;;;;;;18.75;54.42;100774.54;105267;1257;65527;-61
2023/08/13 00:59:59;;;;;;;8.10;3.50;;;;;;;18.76;54.49;100773.90;105272;1254;61311;-61
2023/08/13 01:02:26;;;;;;;7.30;3.50;;;;;;;18.75;54.39;100771.73;105454;1253;65424;-60
2023/08/13 01:04:55;;;;;;;6.40;3.70;;;;;;;18.72;54.45;100773.31;105595;1254;61390;-63
2023/08/13 01:07:41;;;;;;;8.90;3.50;;;;;;;18.67;54.67;100772.77;105670;1253;60441;-61
2023/08/13 01:10:15;;;;;;;;;;;;;;;18.64;54.76;100770.30;105707;1251;63682;-62
2023/08/13 01:12:58;;;;;;;8.20;4.30;;;;;;;18.59;54.78;100768.80;105490;1254;61504;-61
2023/08/13 01:15:31;;;;;;;8.10;3.80;;;;;;;18.54;55.02;100772.54;105428;1254;63669;-62
2023/08/13 01:17:59;;;;;;;5.90;3.50;;;;;;;18.51;55.23;100772.13;105239;1254;60529;-58
2023/08/13 01:20:37;;;;;;;8.70;4.20;;;;;;;18.50;55.26;100776.55;105546;1254;61679;-59
2023/08/13 01:23:05;;;;;;;6.40;3.10;;;;;;;18.50;55.23;100775.86;105454;1253;63767;-61
2023/08/13 01:25:33;;;;;;;5.70;3.60;;;;;;;18.49;55.19;100775.56;105401;1254;61452;-59
2023/08/13 01:28:26;;;;;;;5.80;3.60;;;;;;;18.49;55.51;100778.61;105389;1259;62432;-64
2023/08/13 01:31:08;;;;;;;8.20;3.70;;;;;;;18.51;55.41;100781.83;105440;1254;60369;-60
2023/08/13 01:33:35;;;;;;;6.30;3.40;;;;;;;18.50;55.20;100782.42;105628;1254;60543;-61
2023/08/13 01:36:04;;;;;;;6.20;3.40;;;;;;;18.50;55.23;100782.02;105186;1253;63644;-60
2023/08/13 01:38:32;;;;;;;5.90;3.30;;;;;;;18.51;55.33;100789.98;105685;1254;70200;-61
2023/08/13 01:41:00;;;;;;;8.20;4.20;;;;;;;18.49;55.46;100786.41;105327;1254;63757;-58
2023/08/13 01:43:28;;;;;;;9.80;4.40;;;;;;;18.52;55.42;100786.78;105518;1254;60537;-59
2023/08/13 01:45:56;;;;;;;6.30;3.90;;;;;;;18.53;55.36;100790.90;105383;1254;60361;-60
2023/08/13 01:48:24;;;;;;;10.00;3.90;;;;;;;18.55;55.42;100792.55;105591;1257;63711;-59
2023/08/13 01:50:52;;;;;;;6.40;3.40;;;;;;;18.56;55.24;100796.69;105539;1254;61525;-58
2023/08/13 01:53:20;;;;;;;9.30;4.30;;;;;;;18.57;55.30;100796.09;105707;1254;64174;-61
2023/08/13 01:55:47;;;;;;;7.00;3.90;;;;;;;18.57;55.17;100796.41;105551;1255;60614;-60
2023/08/13 01:58:15;;;;;;;7.10;3.40;;;;;;;18.54;55.06;100794.89;105396;1254;60455;-60
2023/08/13 02:00:42;;;;;;;7.90;4.00;;;;;;;18.51;55.14;100793.08;105389;1257;64972;-62
2023/08/13 02:03:10;;;;;;;7.20;3.80;;;;;;;18.47;55.25;100798.40;106353;1254;60447;-61
2023/08/13 02:05:38;;;;;;;9.50;3.50;;;;;;;18.44;55.50;100797.66;105388;1257;62463;-62
2023/08/13 02:08:05;;;;;;;7.00;3.80;;;;;;;18.40;55.68;100803.55;105445;1253;60517;-61
2023/08/13 02:10:33;;;;;;;7.70;4.20;;;;;;;18.35;55.76;100799.41;105348;1253;322542;-61
2023/08/13 02:15:11;;;;;;;8.80;3.70;;;;;;;18.12;56.92;100798.18;102363;1294;600345;-61
2023/08/13 02:17:44;;;;;;;10.60;3.90;;;;;;;18.35;56.36;100799.27;104376;1270;59313;-61
2023/08/13 02:20:12;;;;;;;5.90;3.60;;;;;;;18.40;56.32;100804.15;104421;1266;59268;-59
2023/08/13 02:22:40;;;;;;;7.60;3.80;;;;;;;18.40;56.29;100804.98;104545;1271;63288;-61
2023/08/13 02:25:07;;;;;;;6.60;3.90;;;;;;;18.40;56.30;100804.77;104381;1267;62199;-61
2023/08/13 02:27:36;;;;;;;7.10;3.70;;;;;;;18.40;56.45;100802.45;104420;1267;64287;-62
2023/08/13 02:30:04;;;;;;;7.70;3.80;;;;;;;18.39;56.44;100803.64;104482;1269;59344;-60
2023/08/13 02:32:32;;;;;;;7.80;3.60;;;;;;;18.35;56.48;100804.64;104771;1264;59320;-61
2023/08/13 02:35:00;;;;;;;6.90;3.90;;;;;;;18.33;56.53;100806.77;104658;1268;63876;-60
2023/08/13 02:37:27;;;;;;;8.30;3.80;;;;;;;18.35;56.40;100810.63;104551;1269;61460;-59
2023/08/13 02:39:58;;;;;;;8.00;3.90;;;;;;;18.40;56.28;100814.05;104533;1266;64137;-60
2023/08/13 02:42:25;;;;;;;6.50;3.50;;;;;;;18.40;56.36;100811.35;104534;1264;59620;-59
2023/08/13 02:44:53;;;;;;;6.50;3.80;;;;;;;18.39;56.67;100810.23;104832;1267;59682;-61
2023/08/13 02:47:21;;;;;;;7.60;3.90;;;;;;;18.37;56.76;100808.45;104547;1263;62943;-63
2023/08/13 02:49:49;;;;;;;7.90;4.80;;;;;;;18.35;56.65;100805.44;104775;1268;70545;-63
2023/08/13 02:52:16;;;;;;;8.00;3.80;;;;;;;18.33;56.59;100805.84;105028;1265;64446;-63
2023/08/13 02:54:44;;;;;;;9.90;3.90;;;;;;;18.29;56.70;100807.59;104606;1263;59756;-64
2023/08/13 02:57:12;;;;;;;6.10;3.80;;;;;;;18.24;56.65;100810.58;104941;1264;59582;-57
2023/08/13 02:59:39;;;;;;;6.30;3.70;;;;;;;18.23;56.97;100808.17;104545;1263;64075;-56
2023/08/13 03:02:07;;;;;;;7.10;3.90;;;;;;;18.26;57.09;100813.21;104503;1268;64164;-56
2023/08/13 03:04:35;;;;;;;8.10;3.90;;;;;;;18.28;57.19;100814.72;104539;1268;63664;-57
2023/08/13 03:07:02;;;;;;;7.20;3.90;;;;;;;18.27;57.36;100816.27;104563;1263;59803;-56
2023/08/13 03:09:30;;;;;;;7.30;3.70;;;;;;;18.27;57.71;100819.61;104566;1269;59596;-57
2023/08/13 03:11:57;;;;;;;6.00;3.70;;;;;;;18.28;57.73;100818.52;104481;1264;64251;-54
2023/08/13 03:14:25;;;;;;;7.20;4.20;;;;;;;18.28;57.80;100821.52;104554;1263;61326;-57
2023/08/13 03:16:52;;;;;;;9.00;4.20;;;;;;;18.27;57.86;100821.58;104583;1263;63767;-57
2023/08/13 03:19:20;;;;;;;8.20;4.50;;;;;;;18.27;57.74;100822.18;104661;1269;59717;-56
2023/08/13 03:21:48;;;;;;;6.70;3.70;;;;;;;18.27;57.82;100824.10;104595;1263;59733;-58
2023/08/13 03:24:16;;;;;;;7.20;4.00;;;;;;;18.31;57.99;100826.38;104499;1266;64075;-55
2023/08/13 03:26:44;;;;;;;8.10;4.20;;;;;;;18.33;57.96;100829.17;104751;1263;61377;-57
2023/08/13 03:29:12;;;;;;;6.80;4.40;;;;;;;18.34;58.14;100829.25;104835;1269;72792;-58
2023/08/13 03:31:40;;;;;;;6.20;3.90;;;;;;;18.36;58.37;100825.94;104634;1266;59714;-55
2023/08/13 03:34:16;;;;;;;6.60;4.00;;;;;;;18.37;58.45;100825.91;104688;1267;59641;-57
2023/08/13 03:36:44;;;;;;;7.30;4.20;;;;;;;18.35;58.37;100826.83;104557;1268;64133;-56
2023/08/13 03:39:12;;;;;;;7.80;4.00;;;;;;;18.32;58.33;100828.77;104726;1267;61359;-57
2023/08/13 03:41:39;;;;;;;7.40;4.30;;;;;;;18.33;58.43;100831.77;105224;1263;63727;-64
2023/08/13 03:44:07;;;;;;;7.30;4.20;;;;;;;18.42;58.14;100836.42;105028;1258;59758;-64
2023/08/13 03:46:34;;;;;;;6.90;3.50;;;;;;;18.48;57.89;100837.58;105231;1260;59721;-62
2023/08/13 03:49:03;;;;;;;6.50;3.60;;;;;;;18.51;57.85;100839.11;105266;1260;62896;-63
2023/08/13 03:51:31;;;;;;;7.20;3.60;;;;;;;18.54;57.65;100839.15;105127;1260;60132;-64
2023/08/13 03:53:59;;;;;;;6.30;4.00;;;;;;;18.56;57.63;100841.79;105425;1257;63711;-63
2023/08/13 03:56:30;;;;;;;7.40;3.90;;;;;;;18.57;57.38;100844.05;105083;1260;60111;-60
2023/08/13 03:58:59;;;;;;;6.60;4.00;;;;;;;18.55;57.25;100845.66;105203;1257;59599;-63
2023/08/13 04:01:27;;;;;;;6.30;3.90;;;;;;;18.54;57.28;100845.05;105599;1262;62916;-61
2023/08/13 04:03:56;;;;;;;7.60;4.00;;;;;;;18.54;57.42;100845.39;105221;1262;61515;-62
2023/08/13 04:06:24;;;;;;;6.30;3.70;;;;;;;18.58;57.49;100846.89;105075;1263;63687;-54
2023/08/13 04:08:51;;;;;;;6.90;4.00;;;;;;;18.65;57.37;100849.39;105075;1265;59749;-57
2023/08/13 04:11:19;;;;;;;6.50;3.40;;;;;;;18.72;57.34;100852.20;105282;1261;59548;-56
2023/08/13 04:13:47;;;;;;;6.70;4.20;;;;;;;18.78;57.28;100851.88;105310;1260;64202;-55
2023/08/13 04:16:14;;;;;;;10.10;5.10;;;;;;;18.83;57.18;100850.74;105092;1262;61422;-56
2023/08/13 04:18:44;;;;;;;6.30;4.10;;;;;;;18.87;57.07;100849.55;105237;1260;63723;-55
2023/08/13 04:21:12;;;;;;;7.60;4.00;;;;;;;18.92;56.77;100854.02;105016;1260;59756;-56
2023/08/13 04:23:40;;;;;;;11.30;5.10;;;;;;;18.94;56.49;100852.56;105174;1260;59742;-55
2023/08/13 04:26:08;;;;;;;6.50;4.10;;;;;;;18.95;56.43;100852.95;104975;1257;62826;-56
2023/08/13 04:28:36;;;;;;;8.30;3.60;;;;;;;18.94;56.36;100855.52;105259;1262;61953;-55
2023/08/13 04:31:03;;;;;;;6.20;3.90;;;;;;;18.94;56.28;100853.70;105068;1259;63769;-55
2023/08/13 04:33:34;;;;;;;5.80;3.70;;;;;;;19.00;56.20;100855.95;104981;1257;59712;-54
2023/08/13 04:36:02;;;;;;;6.20;3.60;;;;;;;19.07;55.96;100856.95;105032;1263;59563;-55
2023/08/13 04:38:30;;;;;;;7.40;3.80;;;;;;;19.13;56.02;100856.14;105434;1258;64113;-57
2023/08/13 04:41:01;;;;;;;9.80;3.60;;;;;;;19.18;55.78;100859.22;105097;1262;70568;-55
2023/08/13 04:43:28;;;;;;;6.20;3.30;;;;;;;19.23;55.88;100858.85;105068;1262;64241;-56
2023/08/13 04:45:57;;;;;;;8.10;3.40;;;;;;;19.28;55.70;100855.21;105094;1257;59848;-55
2023/08/13 04:48:47;;;;;;;7.60;3.70;;;;;;;19.33;55.45;100855.70;104749;1259;59553;-54
2023/08/13 04:51:20;;;;;;;6.90;3.70;;;;;;;19.40;55.18;100855.73;105020;1256;64174;-54
2023/08/13 04:53:48;;;;;;;8.30;4.00;;;;;;;19.44;54.94;100856.45;105174;1256;61365;-55
2023/08/13 04:56:17;;;;;;;8.70;4.50;;;;;;;19.49;54.93;100859.38;105171;1261;63820;-53
2023/08/13 04:58:44;;;;;;;8.70;3.70;;;;;;;19.56;54.93;100859.96;105114;1260;60627;-54
2023/08/13 05:01:13;;;;;;;7.30;3.60;;;;;;;19.67;54.87;100858.77;105330;1262;59250;-55
2023/08/13 05:03:44;;;;;;;7.10;3.80;;;;;;;19.77;54.74;100861.05;104946;1258;62875;-51
2023/08/13 05:06:12;;;;;;;9.50;3.90;;;;;;;19.85;54.65;100860.02;104990;1262;60295;-50
2023/08/13 05:08:40;;;;;;;8.10;3.90;;;;;;;19.92;54.42;100856.44;104940;1257;62460;-50
2023/08/13 05:11:08;;;;;;;6.70;4.00;;;;;;;19.98;54.14;100859.12;105093;1258;59725;-51
2023/08/13 05:13:36;;;;;;;6.80;3.70;;;;;;;20.04;54.13;100861.05;105228;1263;59703;-51
2023/08/13 05:16:04;;;;;;;7.00;3.60;;;;;;;20.11;54.07;100862.42;104895;1262;64767;-49
2023/08/13 05:18:32;;;;;;;7.00;3.30;;;;;;;20.17;53.88;100864.42;105219;1254;62474;-48
2023/08/13 05:20:59;;;;;;;7.10;3.80;;;;;;;20.23;54.01;100864.08;105163;1260;62498;-49
2023/08/13 05:23:27;;;;;;;9.10;4.00;;;;;;;20.30;53.84;100864.73;105283;1256;59908;-49
2023/08/13 05:25:55;;;;;;;8.10;3.70;;;;;;;20.41;53.36;100865.52;105079;1254;59703;-50
2023/08/13 05:28:23;;;;;;;7.70;4.10;;;;;;;20.52;53.24;100867.92;105415;1257;64690;-50
2023/08/13 05:30:50;;;;;;;7.70;4.10;;;;;;;20.62;53.09;100868.91;106538;1260;60310;-55
2023/08/13 05:33:19;;;;;;;6.40;4.20;;;;;;;20.70;52.84;100867.68;105207;1256;63808;-55
2023/08/13 05:35:46;;;;;;;7.40;4.00;;;;;;;20.78;52.69;100865.55;105257;1259;59752;-49
2023/08/13 05:38:14;;;;;;;7.00;3.70;;;;;;;20.85;52.24;100870.04;105173;1259;59643;-49
2023/08/13 05:40:42;;;;;;;5.90;3.60;;;;;;;20.91;52.05;100872.91;105313;1259;64108;-48
2023/08/13 05:43:10;;;;;;;7.00;3.60;;;;;;;20.98;52.14;100875.20;105263;1257;62157;-50
2023/08/13 05:45:37;;;;;;;7.60;4.20;;;;;;;21.06;51.85;100875.27;105087;1257;64360;-47
2023/08/13 05:48:06;;;;;;;5.40;3.50;;;;;;;21.13;51.61;100873.54;105208;1254;59689;-50
2023/08/13 05:50:34;;;;;;;7.60;3.80;;;;;;;21.19;51.61;100874.45;108271;1255;60521;-50
2023/08/13 05:53:01;;;;;;;8.60;3.80;;;;;;;21.26;51.53;100874.86;105276;1258;66579;-49
2023/08/13 05:55:29;;;;;;;7.70;3.70;;;;;;;21.33;51.38;100871.39;105211;1255;65398;-49
2023/08/13 05:57:57;;;;;;;6.60;3.50;;;;;;;21.41;51.28;100876.54;105143;1257;64266;-49
2023/08/13 06:00:25;;;;;;;9.90;4.00;;;;;;;21.48;51.02;100875.59;105448;1256;59666;-48
2023/08/13 06:02:52;;;;;;;6.50;3.50;;;;;;;21.55;51.22;100867.30;105219;1260;59644;-49
2023/08/13 06:05:20;;;;;;;6.80;3.90;;;;;;;21.63;51.39;100865.98;105358;1255;64121;-50
2023/08/13 06:07:48;;;;;;;8.30;3.40;;;;;;;21.75;51.32;100868.75;105392;1258;61485;-51
2023/08/13 06:10:18;;;;;;;5.70;3.10;;;;;;;21.91;50.84;100867.06;106668;1254;73751;-52
2023/08/13 06:12:47;;;;;;;12.90;4.10;;;;;;;22.03;49.88;100869.20;105369;1256;59756;-51
2023/08/13 06:15:14;;;;;;;7.50;3.90;;;;;;;22.12;50.11;100868.59;105237;1257;59732;-50
2023/08/13 06:17:42;;;;;;;7.00;3.80;;;;;;;22.22;50.25;100867.58;105166;1254;64130;-50
2023/08/13 06:20:10;;;;;;;8.10;3.50;;;;;;;22.33;49.96;100873.63;105416;1260;60293;-49
2023/08/13 06:22:37;;;;;;;6.30;4.00;;;;;;;22.41;49.42;100871.01;105210;1258;63810;-48
2023/08/13 06:25:06;;;;;;;6.20;3.60;;;;;;;22.48;49.35;100869.15;105449;1254;60625;-47
2023/08/13 06:27:33;;;;;;;5.90;3.80;;;;;;;22.54;49.36;100866.91;105957;1254;60665;-50
2023/08/13 06:30:01;;;;;;;6.70;3.60;;;;;;;22.60;49.10;100868.29;105209;1254;65489;-51
2023/08/13 06:32:32;;;;;;;8.00;4.10;;;;;;;22.67;49.03;100868.70;105667;1251;61305;-56
2023/08/13 06:35:00;;;;;;;10.30;4.00;;;;;;;22.75;48.94;100865.92;105148;1251;62462;-54
2023/08/13 06:37:27;;;;;;;7.10;4.40;;;;;;;22.82;48.51;100866.98;105150;1256;60598;-54
2023/08/13 06:39:55;;;;;;;5.10;3.20;;;;;;;22.89;48.44;100869.08;105000;1253;61701;-53
2023/08/13 06:42:23;;;;;;;6.30;3.00;;;;;;;22.97;47.33;100871.75;105028;1254;64960;-51
2023/08/13 06:44:50;;;;;;;7.20;3.00;;;;;;;23.05;46.50;100873.15;105952;1259;61365;-55
2023/08/13 06:47:18;;;;;;;6.00;3.30;;;;;;;23.11;46.15;100867.02;105136;1257;63734;-56
2023/08/13 06:49:46;;;;;;;6.40;3.50;;;;;;;23.17;45.78;100869.30;105917;1254;60520;-54
2023/08/13 06:52:13;;;;;;;8.50;4.00;;;;;;;23.24;45.50;100867.34;105220;1257;60645;-53
2023/08/13 06:54:42;;;;;;;4.90;2.90;;;;;;;23.31;45.24;100870.36;105360;1254;65420;-54
2023/08/13 06:57:09;;;;;;;5.50;3.30;;;;;;;23.38;45.31;100871.61;105344;1255;61296;-54
2023/08/13 06:59:37;;;;;;;4.90;3.00;;;;;;;23.46;45.20;100871.49;106940;1254;63626;-54
2023/08/13 07:02:05;;;;;;;5.70;3.10;;;;;;;23.56;45.10;100869.78;105313;1256;60480;-55
2023/08/13 07:04:32;;;;;;;7.20;3.30;;;;;;;23.64;44.83;100868.16;105308;1261;60367;-55
2023/08/13 07:07:00;;;;;;;6.70;3.00;;;;;;;23.72;44.80;100869.89;105473;1259;64973;-55
2023/08/13 07:09:28;;;;;;;7.10;3.20;;;;;;;23.78;44.58;100865.55;105575;1258;60571;-54
2023/08/13 07:11:55;;;;;;;5.50;3.10;;;;;;;23.85;43.94;100863.30;105895;1251;62460;-50
2023/08/13 07:14:23;;;;;;;6.00;3.10;;;;;;;23.91;43.88;100861.96;105707;1251;60908;-50
2023/08/13 07:16:51;;;;;;;6.20;3.10;;;;;;;23.98;44.12;100866.75;105570;1254;60798;-51
2023/08/13 07:19:19;;;;;;;10.80;3.20;;;;;;;24.03;43.65;100873.89;105427;1259;64924;-55
2023/08/13 07:21:46;;;;;;;5.20;3.10;;;;;;;24.08;43.19;100867.72;105368;1255;61383;-51
2023/08/13 07:24:14;;;;;;;5.60;2.60;;;;;;;24.12;43.21;100867.77;105516;1254;63896;-50
2023/08/13 07:26:41;;;;;;;5.60;3.00;;;;;;;24.17;42.70;100872.30;105408;1257;60550;-49
2023/08/13 07:29:10;;;;;;;5.40;2.90;;;;;;;24.22;42.69;100871.66;105315;1253;60444;-58
2023/08/13 07:31:38;;;;;;;6.10;3.00;;;;;;;24.27;42.98;100872.21;105537;1256;64911;-58
2023/08/13 07:34:06;;;;;;;5.50;3.00;;;;;;;24.35;42.76;100867.27;105532;1254;61362;-57
2023/08/13 07:36:33;;;;;;;5.30;3.30;;;;;;;24.42;42.88;100867.30;105236;1257;63779;-57
2023/08/13 07:39:02;;;;;;;6.00;3.00;;;;;;;24.48;42.53;100869.43;105590;1251;60469;-56
2023/08/13 07:41:29;;;;;;;5.80;3.10;;;;;;;24.55;42.34;100870.75;105441;1251;60444;-57
2023/08/13 07:43:57;;;;;;;6.10;3.70;;;;;;;24.61;41.82;100868.28;105470;1254;64974;-57
2023/08/13 07:46:25;;;;;;;5.30;2.90;;;;;;;24.68;41.21;100869.24;105765;1257;61426;-56
2023/08/13 07:48:53;;;;;;;5.30;2.90;;;;;;;24.72;41.30;100866.02;105379;1255;63686;-60
2023/08/13 07:51:20;;;;;;;5.30;2.80;;;;;;;24.74;40.84;100864.45;105566;1260;60448;-58
2023/08/13 07:53:48;;;;;;;5.70;3.10;;;;;;;24.79;40.72;100863.46;105448;1252;60426;-57
2023/08/13 07:56:16;;;;;;;4.70;2.50;;;;;;;24.86;40.83;100862.91;105419;1254;65048;-57
2023/08/13 07:58:43;;;;;;;6.40;3.20;;;;;;;24.94;40.70;100862.73;105404;1251;61354;-57
2023/08/13 08:01:12;;;;;;;4.80;2.90;;;;;;;25.01;39.23;100864.90;105493;1254;63718;-56
2023/08/13 08:03:41;;;;;;;6.30;2.80;;;;;;;25.07;39.46;100860.21;105452;1255;60466;-57
2023/08/13 08:06:08;;;;;;;4.90;3.00;;;;;;;25.14;39.68;100856.73;105378;1256;60703;-56
2023/08/13 08:08:36;;;;;;;5.50;2.70;;;;;;;25.22;39.56;100855.83;105386;1254;64835;-57
2023/08/13 08:11:04;;;;;;;5.60;2.90;;;;;;;25.31;39.33;100856.42;105432;1254;61424;-57
2023/08/13 08:13:35;;;;;;;6.10;3.00;;;;;;;25.40;38.89;100858.86;105638;1255;63754;-58
2023/08/13 08:16:03;;;;;;;6.30;3.10;;;;;;;25.48;38.09;100855.98;105843;1253;60935;-58
2023/08/13 08:18:30;;;;;;;6.30;3.10;;;;;;;25.55;37.71;100852.48;105447;1260;60368;-57
2023/08/13 08:20:58;;;;;;;7.00;2.70;;;;;;;25.62;37.67;100857.06;105472;1255;65494;-57
2023/08/13 08:23:25;;;;;;;5.90;2.80;;;;;;;25.68;37.08;100854.20;105349;1257;61396;-60
2023/08/13 08:25:53;;;;;;;7.80;2.60;;;;;;;25.74;37.45;100845.98;105568;1252;63749;-54
2023/08/13 08:28:20;;;;;;;5.50;3.00;;;;;;;25.82;37.30;100843.96;105380;1255;60578;-55
2023/08/13 08:30:48;;;;;;;7.30;2.50;;;;;;;25.86;37.13;100844.29;105485;1257;60454;-55
2023/08/13 08:33:16;;;;;;;7.60;2.90;;;;;;;25.90;37.03;100838.71;105429;1257;65349;-51
2023/08/13 08:35:44;;;;;;;6.30;3.00;;;;;;;25.94;37.11;100837.80;105399;1257;60543;-50
2023/08/13 08:38:12;;;;;;;5.00;2.60;;;;;;;26.00;37.31;100827.91;105396;1254;63728;-51
2023/08/13 08:40:45;;;;;;;5.40;3.00;;;;;;;26.05;37.26;100829.88;105462;1254;60463;-55
2023/08/13 08:43:13;;;;;;;6.80;2.90;;;;;;;26.11;37.21;100837.66;105506;1256;60549;-55
2023/08/13 08:45:40;;;;;;;6.20;2.90;;;;;;;26.19;36.36;100840.73;105425;1259;64966;-49
2023/08/13 08:48:08;;;;;;;5.70;2.50;;;;;;;26.26;35.82;100843.72;105428;1251;61370;-51
2023/08/13 08:50:36;;;;;;;7.80;2.80;;;;;;;26.24;35.21;100847.72;105491;1254;62491;-55
2023/08/13 08:53:04;;;;;;;6.30;2.80;;;;;;;26.15;34.67;100839.75;105337;1254;60622;-53
2023/08/13 08:55:31;;;;;;;4.60;2.70;;;;;;;26.08;35.06;100842.08;105290;1254;60392;-54
2023/08/13 08:57:59;;;;;;;6.20;2.80;;;;;;;26.03;35.02;100844.63;105313;1260;64942;-52
2023/08/13 09:00:27;;;;;;;5.30;2.60;;;;;;;26.05;35.09;100841.38;105544;1253;60443;-52
2023/08/13 09:02:55;;;;;;;5.00;2.70;;;;;;;26.11;35.06;100841.73;105359;1255;63755;-52
2023/08/13 09:05:22;;;;;;;5.00;2.70;;;;;;;26.20;34.86;100848.48;105400;1258;60553;-53
2023/08/13 09:07:50;;;;;;;5.70;2.90;;;;;;;26.27;34.79;100837.86;105275;1254;60454;-52
2023/08/13 09:10:18;;;;;;;5.00;2.70;;;;;;;26.32;34.93;100847.10;105222;1254;64964;-49
2023/08/13 09:12:45;;;;;;;7.50;3.00;;;;;;;26.33;34.89;100843.14;109280;1252;61379;-51
2023/08/13 09:15:13;;;;;;;6.70;2.80;;;;;;;26.38;35.03;100843.95;109376;1251;63661;-51
2023/08/13 09:17:41;;;;;;;4.60;2.40;;;;;;;26.48;35.14;100841.81;106295;1254;60463;-51
2023/08/13 09:20:19;;;;;;;5.80;2.80;;;;;;;26.60;34.76;100839.02;109240;1253;60159;-52
2023/08/13 09:22:47;;;;;;;6.10;2.50;;;;;;;26.69;34.54;100838.93;109355;1253;63683;-51
2023/08/13 09:25:14;;;;;;;7.30;2.90;;;;;;;26.72;34.56;100837.78;109322;1254;60110;-54
2023/08/13 09:27:42;;;;;;;4.40;2.40;;;;;;;26.75;34.93;100835.77;107119;1254;62459;-49
2023/08/13 09:30:12;;;;;;;5.30;3.00;;;;;;;26.75;34.66;100834.92;105364;1261;60477;-50
2023/08/13 09:32:41;;;;;;;8.00;3.20;;;;;;;26.73;34.80;100837.02;105458;1254;60533;-49
2023/08/13 09:35:09;;;;;;;4.40;2.50;;;;;;;26.70;34.86;100838.12;105595;1257;63694;-49
2023/08/13 09:37:38;;;;;;;5.30;2.60;;;;;;;26.69;34.61;100841.02;105489;1259;62604;-54
2023/08/13 09:40:08;;;;;;;6.60;2.80;;;;;;;26.67;33.94;100838.44;105736;1254;66279;-49
2023/08/13 09:42:35;;;;;;;4.90;2.70;;;;;;;26.65;34.70;100836.02;105539;1253;60530;-54
2023/08/13 09:45:04;;;;;;;5.20;3.00;;;;;;;26.70;34.21;100828.91;105378;1253;60558;-50
2023/08/13 09:47:32;;;;;;;4.90;2.60;;;;;;;26.75;33.77;100832.60;105484;1253;63626;-51
2023/08/13 09:50:00;;;;;;;4.80;2.70;;;;;;;26.76;33.83;100834.38;105522;1254;63164;-48
2023/08/13 09:52:28;;;;;;;7.10;3.10;;;;;;;26.75;33.71;100841.83;105418;1256;62438;-49
2023/08/13 09:55:02;;;;;;;7.40;2.60;;;;;;;26.66;34.12;100836.58;105648;1253;60573;-49
2023/08/13 09:57:31;;;;;;;5.70;2.70;;;;;;;26.58;34.57;100837.67;105418;1257;60613;-49
2023/08/13 10:00:00;;;;;;;5.00;2.50;;;;;;;26.53;34.97;100842.95;105605;1254;64985;-51
2023/08/13 10:02:31;;;;;;;6.20;3.10;;;;;;;26.44;34.81;100856.66;105480;1254;61616;-49
2023/08/13 10:04:59;;;;;;;5.60;2.70;;;;;;;26.36;34.47;100855.42;105603;1254;64649;-49
2023/08/13 10:07:27;;;;;;;6.40;2.90;;;;;;;26.29;34.78;100850.81;105431;1257;60495;-50
2023/08/13 10:09:54;;;;;;;5.60;2.80;;;;;;;26.29;34.72;100851.17;105426;1253;60453;-49
2023/08/13 10:12:29;;;;;;;5.00;2.70;;;;;;;26.37;34.67;100842.29;105365;1257;65563;-51
2023/08/13 10:14:58;;;;;;;5.60;2.20;;;;;;;26.52;34.67;100842.17;105470;1256;61405;-49
2023/08/13 10:17:28;;;;;;;6.80;2.70;;;;;;;26.70;34.11;100835.88;105428;1257;63782;-54
2023/08/13 10:19:56;;;;;;;6.30;3.70;;;;;;;26.86;33.20;100833.81;104963;1255;60635;-55
2023/08/13 10:22:38;;;;;;;4.60;2.60;;;;;;;26.99;32.96;100829.59;105197;1253;60406;-54
2023/08/13 10:25:07;;;;;;;5.20;2.70;;;;;;;27.12;33.59;100826.11;105215;1254;76324;-55
2023/08/13 10:27:35;;;;;;;7.00;2.60;;;;;;;27.20;33.34;100831.77;105226;1259;61608;-51
2023/08/13 10:30:09;;;;;;;4.60;2.90;;;;;;;27.19;33.07;100834.40;105442;1254;65726;-52
2023/08/13 10:32:38;;;;;;;5.30;2.80;;;;;;;27.10;33.45;100839.30;105297;1252;59106;-52
2023/08/13 10:35:23;;;;;;;4.80;2.80;;;;;;;27.01;33.60;100840.84;108117;1252;58148;-52
2023/08/13 10:37:52;;;;;;;4.90;2.50;;;;;;;26.96;33.72;100838.30;105090;1254;64964;-52
2023/08/13 10:40:19;;;;;;;5.80;2.70;;;;;;;26.97;34.02;100837.80;105362;1257;60508;-50
2023/08/13 10:42:51;;;;;;;5.40;2.80;;;;;;;27.03;33.57;100839.77;104974;1257;63674;-49
2023/08/13 10:45:21;;;;;;;5.90;2.40;;;;;;;27.15;33.38;100834.22;105267;1257;60537;-50
2023/08/13 10:47:58;;;;;;;5.80;2.80;;;;;;;27.33;33.05;100827.19;104998;1253;60495;-48
2023/08/13 10:50:26;;;;;;;7.70;2.80;;;;;;;27.54;33.16;100825.09;105729;1257;65004;-54
2023/08/13 10:53:04;;;;;;;4.90;2.60;;;;;;;27.73;32.91;100827.13;108005;1251;61369;-50
2023/08/13 10:55:33;;;;;;;5.70;3.00;;;;;;;27.93;32.07;100823.87;105461;1255;72666;-60
2023/08/13 10:58:00;;;;;;;5.30;2.90;;;;;;;28.04;31.61;100824.40;105420;1257;60556;-56
2023/08/13 11:00:28;;;;;;;6.30;2.80;;;;;;;28.14;31.37;100830.02;105398;1254;60550;-55
2023/08/13 11:03:21;;;;;;;5.30;2.60;;;;;;;28.18;31.08;100827.56;105138;1256;63663;-55
2023/08/13 11:05:50;;;;;;;10.10;3.30;;;;;;;28.23;31.59;100830.54;109162;1251;61522;-58
2023/08/13 11:08:21;;;;;;;5.70;2.80;;;;;;;28.29;31.73;100828.11;108937;1253;63865;-57
2023/08/13 11:11:08;;;;;;;4.90;2.50;;;;;;;28.35;31.44;100822.50;109234;1253;58503;-58
2023/08/13 11:13:35;;;;;;;6.00;2.30;;;;;;;28.42;31.71;100817.73;109024;1251;58747;-57
2023/08/13 11:16:03;;;;;;;5.00;2.70;;;;;;;28.53;31.27;100822.90;108900;1257;63675;-56
2023/08/13 11:18:31;;;;;;;5.00;2.30;;;;;;;28.63;30.88;100824.31;105332;1257;60437;-57
2023/08/13 11:20:58;;;;;;;5.40;2.40;;;;;;;28.67;31.30;100823.38;105551;1252;63925;-58
2023/08/13 11:23:26;;;;;;;7.30;2.80;;;;;;;28.69;31.67;100815.75;105398;1253;60519;-59
2023/08/13 11:25:53;;;;;;;5.10;2.90;;;;;;;28.78;32.18;100812.51;105729;1258;60451;-57